createdAt,value
2022-08-27T00:01:37.242Z,6.00
2022-08-27T00:06:42.691Z,5.90
2022-08-27T00:11:51.612Z,6.80
2022-08-27T00:16:57.491Z,6.70
2022-08-27T00:22:03.207Z,7.00
2022-08-27T00:27:08.548Z,6.70
2022-08-27T00:32:14.527Z,5.40
2022-08-27T00:37:20.492Z,6.70
2022-08-27T00:42:26.367Z,7.20
2022-08-27T00:47:37.288Z,6.00
2022-08-27T00:52:45.814Z,6.20
2022-08-27T00:57:54.980Z,6.90
2022-08-27T01:03:00.311Z,7.40
2022-08-27T01:08:09.861Z,6.40
2022-08-27T01:13:16.933Z,6.50
2022-08-27T01:18:22.793Z,7.30
2022-08-27T01:23:33.069Z,7.00
2022-08-27T01:28:39.127Z,6.80
2022-08-27T01:33:56.361Z,6.90
2022-08-27T01:39:02.094Z,6.70
2022-08-27T01:44:07.394Z,6.90
2022-08-27T01:49:13.250Z,7.10
2022-08-27T01:54:18.726Z,5.60
2022-08-27T01:59:24.113Z,7.20
2022-08-27T02:04:45.119Z,7.50
2022-08-27T02:09:50.526Z,6.40
2022-08-27T02:14:55.907Z,6.70
2022-08-27T02:20:01.476Z,8.40
2022-08-27T02:25:10.185Z,8.00
2022-08-27T02:30:18.419Z,7.50
2022-08-27T02:35:24.955Z,7.40
2022-08-27T02:40:30.694Z,7.90
2022-08-27T02:45:37.612Z,7.50
2022-08-27T02:50:43.883Z,8.30
2022-08-27T02:55:49.273Z,7.70
2022-08-27T03:00:55.384Z,7.10
2022-08-27T03:06:00.710Z,8.80
2022-08-27T03:11:08.159Z,8.10
2022-08-27T03:16:13.538Z,8.10
2022-08-27T03:21:19.740Z,7.70
2022-08-27T03:26:25.071Z,7.40
2022-08-27T03:31:31.324Z,7.50
2022-08-27T03:36:36.658Z,7.40
2022-08-27T03:41:54.167Z,7.90
2022-08-27T03:47:01.295Z,8.60
2022-08-27T03:52:06.892Z,7.90
2022-08-27T03:57:12.529Z,8.20
2022-08-27T04:02:18.127Z,9.00
2022-08-27T04:07:23.506Z,9.80
2022-08-27T04:12:28.989Z,8.40
2022-08-27T04:17:34.449Z,9.20
2022-08-27T04:22:40.112Z,9.30
2022-08-27T04:27:45.579Z,9.20
2022-08-27T04:32:51.475Z,9.10
2022-08-27T04:37:57.672Z,9.00
2022-08-27T04:43:05.735Z,8.50
2022-08-27T04:48:11.215Z,9.50
2022-08-27T04:53:17.836Z,9.10
2022-08-27T04:58:24.005Z,9.10
2022-08-27T05:03:29.731Z,8.70
2022-08-27T05:08:36.065Z,9.60
2022-08-27T05:13:42.267Z,9.90
2022-08-27T05:18:48.627Z,10.00
2022-08-27T05:23:55.540Z,10.00
2022-08-27T05:29:01.696Z,11.20
2022-08-27T05:34:10.298Z,11.60
2022-08-27T05:39:19.080Z,10.50
2022-08-27T05:44:40.139Z,11.30
2022-08-27T05:49:46.624Z,11.30
2022-08-27T05:54:52.023Z,12.30
2022-08-27T06:00:16.219Z,11.00
2022-08-27T06:05:22.022Z,11.40
2022-08-27T06:10:27.510Z,10.10
2022-08-27T06:15:32.967Z,11.70
2022-08-27T06:20:38.419Z,10.30
2022-08-27T06:25:44.002Z,12.30
2022-08-27T06:30:49.607Z,12.20
2022-08-27T06:35:55.048Z,11.00
2022-08-27T06:41:00.495Z,10.80
2022-08-27T06:46:06.377Z,10.90
2022-08-27T06:51:14.112Z,11.20
2022-08-27T06:56:19.616Z,10.30
2022-08-27T07:01:27.279Z,10.00
2022-08-27T07:06:36.637Z,11.30
2022-08-27T07:11:42.494Z,11.60
2022-08-27T07:16:48.337Z,10.60
2022-08-27T07:21:55.992Z,10.70
2022-08-27T07:27:01.404Z,9.30
2022-08-27T07:32:07.103Z,10.30
2022-08-27T07:37:12.487Z,10.00
2022-08-27T07:42:35.567Z,11.40
2022-08-27T07:47:40.958Z,10.30
2022-08-27T07:52:46.250Z,10.80
2022-08-27T07:57:52.769Z,9.70
2022-08-27T08:02:58.241Z,10.10
2022-08-27T08:08:04.499Z,10.00
2022-08-27T08:13:09.865Z,9.60
2022-08-27T08:18:15.747Z,10.20
2022-08-27T08:23:21.282Z,9.00
2022-08-27T08:28:28.423Z,9.10
2022-08-27T08:33:34.323Z,9.20
2022-08-27T08:38:40.553Z,9.00
2022-08-27T08:43:51.820Z,8.50
2022-08-27T08:49:01.969Z,9.10
2022-08-27T08:54:10.811Z,8.20
2022-08-27T08:59:19.934Z,7.80
2022-08-27T09:04:26.933Z,8.60
2022-08-27T09:09:36.211Z,7.80
2022-08-27T09:14:46.241Z,7.80
2022-08-27T09:19:52.319Z,8.00
2022-08-27T09:25:05.579Z,8.60
2022-08-27T09:30:13.029Z,7.60
2022-08-27T09:35:18.932Z,8.10
2022-08-27T09:40:28.799Z,7.50
2022-08-27T09:45:35.029Z,7.40
2022-08-27T09:50:43.924Z,6.90
2022-08-27T10:01:01.393Z,5.80
2022-08-27T10:06:07.451Z,6.20
2022-08-27T10:11:15.952Z,6.30
2022-08-27T10:16:37.844Z,5.20
2022-08-27T10:21:47.369Z,5.10
2022-08-27T10:26:58.169Z,5.10
2022-08-27T10:32:09.282Z,4.80
2022-08-27T10:37:19.707Z,4.90
2022-08-27T10:42:29.650Z,3.60
2022-08-27T10:47:46.518Z,3.30
2022-08-27T10:52:54.096Z,4.20
2022-08-27T10:58:06.889Z,4.20
2022-08-27T11:03:15.208Z,5.10
2022-08-27T11:08:23.169Z,4.70
2022-08-27T11:13:34.039Z,4.70
2022-08-27T11:18:42.299Z,4.40
2022-08-27T11:23:51.844Z,3.50
2022-08-27T11:29:00.182Z,3.10
2022-08-27T11:34:08.596Z,3.50
2022-08-27T11:39:21.543Z,3.10
2022-08-27T11:44:27.737Z,4.40
2022-08-27T11:49:37.171Z,3.80
2022-08-27T11:54:47.113Z,4.30
2022-08-27T11:59:52.703Z,4.40
2022-08-27T12:05:09.449Z,4.30
2022-08-27T12:10:28.403Z,4.00
2022-08-27T12:15:42.924Z,4.20
2022-08-27T12:20:53.476Z,3.40
2022-08-27T12:26:03.224Z,3.10
2022-08-27T12:31:09.757Z,3.60
2022-08-27T12:36:27.505Z,3.40
2022-08-27T12:41:43.926Z,2.90
2022-08-27T12:51:57.014Z,2.80
2022-08-27T12:57:06.528Z,3.40
2022-08-27T13:02:16.966Z,3.20
2022-08-27T13:07:33.007Z,2.80
2022-08-27T13:12:44.978Z,2.80
2022-08-27T13:17:50.629Z,2.40
2022-08-27T13:22:56.619Z,3.20
2022-08-27T13:28:08.161Z,3.40
2022-08-27T13:33:17.005Z,3.50
2022-08-27T13:38:23.653Z,3.60
2022-08-27T13:43:33.180Z,2.90
2022-08-27T13:48:40.935Z,3.00
2022-08-27T13:54:05.845Z,2.80
2022-08-27T13:59:12.932Z,2.50
2022-08-27T14:09:25.441Z,3.70
2022-08-27T14:14:32.758Z,3.50
2022-08-27T14:19:40.273Z,3.90
2022-08-27T14:24:45.832Z,2.80
2022-08-27T14:29:54.638Z,3.70
2022-08-27T14:35:01.193Z,2.90
2022-08-27T14:40:07.039Z,3.10
2022-08-27T14:45:15.447Z,3.90
2022-08-27T14:50:21.804Z,3.40
2022-08-27T14:55:27.954Z,3.40
2022-08-27T15:00:33.459Z,4.00
2022-08-27T15:05:39.031Z,3.40
2022-08-27T15:10:45.991Z,3.00
2022-08-27T15:15:52.189Z,3.40
2022-08-27T15:20:58.248Z,3.50
2022-08-27T15:26:03.755Z,4.30
2022-08-27T15:31:09.263Z,3.70
2022-08-27T15:36:19.649Z,4.30
2022-08-27T15:41:29.294Z,3.20
2022-08-27T15:46:49.295Z,4.20
2022-08-27T15:52:01.062Z,4.00
2022-08-27T15:57:07.092Z,3.90
2022-08-27T16:02:15.196Z,3.90
2022-08-27T16:07:21.429Z,3.70
2022-08-27T16:12:27.752Z,4.90
2022-08-27T16:17:33.343Z,4.90
2022-08-27T16:22:38.763Z,4.50
2022-08-27T16:27:44.267Z,4.00
2022-08-27T16:32:52.378Z,4.40
2022-08-27T16:37:57.699Z,4.40
2022-08-27T16:43:02.905Z,4.60
2022-08-27T16:48:25.747Z,3.70
2022-08-27T16:53:34.703Z,4.50
2022-08-27T17:04:07.364Z,5.20
2022-08-27T17:09:10.491Z,5.30
2022-08-27T17:14:16.456Z,5.90
2022-08-27T17:19:22.399Z,5.00
2022-08-27T17:24:27.643Z,5.40
2022-08-27T17:29:35.107Z,6.00
2022-08-27T17:34:40.552Z,5.10
2022-08-27T17:39:45.842Z,4.90
2022-08-27T17:44:51.129Z,5.40
2022-08-27T17:49:56.650Z,4.60
2022-08-27T17:55:01.977Z,4.50
2022-08-27T18:00:08.670Z,5.20
2022-08-27T18:05:15.269Z,6.10
2022-08-27T18:10:23.654Z,5.10
2022-08-27T18:15:30.611Z,6.60
2022-08-27T18:20:40.742Z,5.80
2022-08-27T18:25:48.263Z,6.00
2022-08-27T18:30:53.600Z,6.30
2022-08-27T18:35:58.902Z,5.60
2022-08-27T18:41:04.288Z,5.80
2022-08-27T18:46:13.786Z,6.60
2022-08-27T18:51:19.968Z,5.40
2022-08-27T18:56:25.494Z,5.70
2022-08-27T19:01:31.929Z,5.00
2022-08-27T19:06:37.555Z,6.40
2022-08-27T19:11:42.818Z,6.10
2022-08-27T19:16:50.423Z,6.40
2022-08-27T19:21:56.283Z,6.40
2022-08-27T19:27:03.966Z,6.50
2022-08-27T19:32:09.335Z,6.20
2022-08-27T19:37:17.712Z,5.50
2022-08-27T19:42:23.250Z,6.00
2022-08-27T19:47:28.552Z,6.00
2022-08-27T19:52:34.109Z,6.80
2022-08-27T19:57:39.447Z,6.90
2022-08-27T20:02:44.807Z,6.90
2022-08-27T20:07:51.115Z,6.40
2022-08-27T20:12:56.535Z,5.90
2022-08-27T20:18:01.895Z,6.90
2022-08-27T20:23:07.744Z,7.20
2022-08-27T20:28:37.931Z,8.00
2022-08-27T20:33:38.552Z,8.00
2022-08-27T20:38:44.239Z,6.50
2022-08-27T20:43:49.720Z,7.40
2022-08-27T20:48:58.549Z,7.70
2022-08-27T20:54:05.673Z,7.90
2022-08-27T20:59:28.698Z,8.10
2022-08-27T21:04:38.103Z,8.10
2022-08-27T21:09:55.512Z,8.60
2022-08-27T21:15:03.215Z,8.40
2022-08-27T21:20:11.084Z,8.60
2022-08-27T21:25:16.908Z,9.80
2022-08-27T21:30:22.921Z,9.10
2022-08-27T21:35:30.217Z,10.10
2022-08-27T21:40:35.760Z,10.60
2022-08-27T21:45:43.009Z,9.80
2022-08-27T21:50:52.940Z,10.10
2022-08-27T21:55:58.936Z,10.40
2022-08-27T22:01:05.692Z,11.50
2022-08-27T22:06:13.066Z,12.30
2022-08-27T22:11:23.863Z,10.50
2022-08-27T22:16:31.033Z,11.80
2022-08-27T22:21:36.880Z,12.90
2022-08-27T22:26:42.559Z,14.00
2022-08-27T22:31:48.381Z,14.90
2022-08-27T22:36:55.087Z,17.10
2022-08-27T22:42:00.481Z,16.20
2022-08-27T22:47:06.023Z,16.00
2022-08-27T22:52:11.815Z,16.60
2022-08-27T22:57:17.579Z,18.20
2022-08-27T23:02:23.000Z,18.30
2022-08-27T23:07:28.356Z,19.30
2022-08-27T23:12:34.303Z,20.10
2022-08-27T23:17:44.296Z,21.80
2022-08-27T23:22:52.577Z,21.60
2022-08-27T23:27:59.798Z,21.80
2022-08-27T23:33:05.339Z,24.10
2022-08-27T23:38:10.864Z,23.20
2022-08-27T23:43:17.429Z,23.90
2022-08-27T23:48:23.099Z,26.00
2022-08-27T23:53:28.616Z,25.00
2022-08-27T23:58:34.449Z,25.00
